createdAt,value
2022-12-11T00:01:41.082Z,100448.69
2022-12-11T00:04:07.798Z,100451.94
2022-12-11T00:06:38.432Z,100442.47
2022-12-11T00:09:05.103Z,100444.13
2022-12-11T00:11:35.199Z,100447.47
2022-12-11T00:14:02.902Z,100451.81
2022-12-11T00:16:29.594Z,100441.69
2022-12-11T00:18:56.111Z,100449.63
2022-12-11T00:21:22.712Z,100448.81
2022-12-11T00:23:49.520Z,100447.34
2022-12-11T00:26:16.563Z,100447.44
2022-12-11T00:28:44.485Z,100447.59
2022-12-11T00:31:17.557Z,100451.63
2022-12-11T00:33:45.253Z,100457.66
2022-12-11T00:36:17.128Z,100455.78
2022-12-11T00:38:44.523Z,100458.63
2022-12-11T00:41:12.098Z,100459.50
2022-12-11T00:43:38.889Z,100450.03
2022-12-11T00:46:05.810Z,100447.09
2022-12-11T00:48:32.538Z,100453.97
2022-12-11T00:50:59.639Z,100456.59
2022-12-11T00:53:28.332Z,100452.88
2022-12-11T00:55:55.098Z,100461.66
2022-12-11T00:58:22.602Z,100461.38
2022-12-11T01:00:50.703Z,100449.16
2022-12-11T01:03:18.067Z,100464.28
2022-12-11T01:05:54.790Z,100460.88
2022-12-11T01:08:21.995Z,100462.25
2022-12-11T01:10:49.398Z,100462.44
2022-12-11T01:13:16.077Z,100462.88
2022-12-11T01:15:45.440Z,100465.50
2022-12-11T01:18:13.734Z,100470.16
2022-12-11T01:20:42.584Z,100455.84
2022-12-11T01:23:12.465Z,100462.56
2022-12-11T01:25:39.121Z,100462.06
2022-12-11T01:28:06.791Z,100468.00
2022-12-11T01:30:34.260Z,100467.44
2022-12-11T01:33:04.240Z,100474.88
2022-12-11T01:35:30.851Z,100468.00
2022-12-11T01:37:57.403Z,100468.00
2022-12-11T01:40:23.987Z,100471.22
2022-12-11T01:42:50.556Z,100465.81
2022-12-11T01:45:28.975Z,100467.84
2022-12-11T01:48:10.893Z,100466.22
2022-12-11T01:51:04.956Z,100467.44
2022-12-11T01:53:36.994Z,100463.34
2022-12-11T01:56:04.650Z,100466.78
2022-12-11T01:58:35.274Z,100457.28
2022-12-11T02:01:02.895Z,100465.94
2022-12-11T02:03:29.509Z,100458.94
2022-12-11T02:06:00.642Z,100469.63
2022-12-11T02:08:27.277Z,100469.25
2022-12-11T02:11:20.929Z,100461.19
2022-12-11T02:13:59.954Z,100460.28
2022-12-11T02:16:33.598Z,100460.94
2022-12-11T02:19:02.886Z,100456.53
2022-12-11T02:21:39.526Z,100453.94
2022-12-11T02:24:30.977Z,100456.84
2022-12-11T02:27:09.698Z,100444.19
2022-12-11T02:29:44.003Z,100453.09
2022-12-11T02:32:22.490Z,100442.50
2022-12-11T02:35:00.232Z,100440.50
2022-12-11T02:37:32.678Z,100422.59
2022-12-11T02:39:59.438Z,100431.16
2022-12-11T02:42:30.640Z,100427.28
2022-12-11T02:45:00.081Z,100434.28
2022-12-11T02:47:29.403Z,100445.50
2022-12-11T02:49:59.664Z,100437.28
2022-12-11T02:52:28.958Z,100444.19
2022-12-11T02:54:58.434Z,100445.22
2022-12-11T02:57:35.887Z,100446.34
2022-12-11T03:00:02.584Z,100440.81
2022-12-11T03:02:29.311Z,100439.22
2022-12-11T03:04:57.671Z,100434.25
2022-12-11T03:07:32.757Z,100433.47
2022-12-11T03:09:59.581Z,100422.06
2022-12-11T03:12:31.999Z,100429.63
2022-12-11T03:15:05.071Z,100433.25
2022-12-11T03:17:56.119Z,100429.78
2022-12-11T03:20:32.180Z,100432.69
2022-12-11T03:23:30.578Z,100434.91
2022-12-11T03:26:01.250Z,100434.06
2022-12-11T03:28:38.891Z,100436.72
2022-12-11T03:31:09.948Z,100436.50
2022-12-11T03:33:40.580Z,100439.06
2022-12-11T03:36:14.715Z,100445.31
2022-12-11T03:38:51.774Z,100443.81
2022-12-11T03:41:22.113Z,100449.09
2022-12-11T03:43:54.930Z,100439.00
2022-12-11T03:46:24.694Z,100446.91
2022-12-11T03:49:01.952Z,100446.63
2022-12-11T03:51:31.436Z,100445.06
2022-12-11T03:53:58.539Z,100441.81
2022-12-11T03:56:28.569Z,100446.22
2022-12-11T03:58:55.305Z,100447.97
2022-12-11T04:01:22.003Z,100447.19
2022-12-11T04:03:48.563Z,100444.75
2022-12-11T04:06:15.186Z,100451.19
2022-12-11T04:08:41.785Z,100445.78
2022-12-11T04:11:26.947Z,100446.16
2022-12-11T04:14:11.674Z,100446.69
2022-12-11T04:16:38.531Z,100443.31
2022-12-11T04:19:24.763Z,100449.38
2022-12-11T04:22:10.041Z,100438.34
2022-12-11T04:24:36.570Z,100450.91
2022-12-11T04:27:03.317Z,100443.00
2022-12-11T04:29:29.848Z,100434.97
2022-12-11T04:31:56.977Z,100432.03
2022-12-11T04:34:23.790Z,100425.69
2022-12-11T04:36:50.681Z,100439.88
2022-12-11T04:39:17.746Z,100442.28
2022-12-11T04:41:44.516Z,100437.00
2022-12-11T04:44:11.317Z,100432.19
2022-12-11T04:46:38.041Z,100441.81
2022-12-11T04:49:04.767Z,100436.13
2022-12-11T04:51:31.295Z,100439.41
2022-12-11T04:53:59.380Z,100444.19
2022-12-11T04:56:26.047Z,100438.84
2022-12-11T04:58:52.626Z,100440.50
2022-12-11T05:01:22.792Z,100437.28
2022-12-11T05:03:50.220Z,100431.16
2022-12-11T05:06:16.818Z,100432.03
2022-12-11T05:08:45.223Z,100423.81
2022-12-11T05:11:15.018Z,100427.47
2022-12-11T05:13:42.454Z,100427.63
2022-12-11T05:16:11.468Z,100432.47
2022-12-11T05:18:38.455Z,100432.00
2022-12-11T05:21:07.902Z,100434.91
2022-12-11T05:23:34.722Z,100433.22
2022-12-11T05:26:05.013Z,100433.81
2022-12-11T05:28:34.856Z,100431.06
2022-12-11T05:31:04.714Z,100428.53
2022-12-11T05:33:31.945Z,100428.38
2022-12-11T05:35:58.606Z,100427.81
2022-12-11T05:38:25.457Z,100429.72
2022-12-11T05:41:13.616Z,100420.50
2022-12-11T05:43:40.174Z,100429.31
2022-12-11T05:46:13.957Z,100421.16
2022-12-11T05:48:41.908Z,100415.69
2022-12-11T05:51:09.240Z,100414.41
2022-12-11T05:53:37.361Z,100416.25
2022-12-11T05:56:10.795Z,100425.94
2022-12-11T05:58:37.761Z,100427.63
2022-12-11T06:01:08.899Z,100431.22
2022-12-11T06:03:35.536Z,100435.47
2022-12-11T06:06:03.109Z,100431.03
2022-12-11T06:08:30.777Z,100431.47
2022-12-11T06:10:58.258Z,100426.19
2022-12-11T06:13:24.963Z,100430.88
2022-12-11T06:15:51.819Z,100404.53
2022-12-11T06:18:18.399Z,100426.38
2022-12-11T06:20:45.155Z,100413.84
2022-12-11T06:23:11.712Z,100415.22
2022-12-11T06:25:39.498Z,100420.59
2022-12-11T06:28:06.457Z,100418.34
2022-12-11T06:30:38.652Z,100420.84
2022-12-11T06:33:06.139Z,100419.47
2022-12-11T06:35:35.145Z,100413.16
2022-12-11T06:38:07.620Z,100421.34
2022-12-11T06:40:34.119Z,100415.38
2022-12-11T06:43:00.644Z,100413.34
2022-12-11T06:45:27.300Z,100412.56
2022-12-11T06:47:53.887Z,100415.94
2022-12-11T06:50:20.500Z,100418.72
2022-12-11T06:52:46.988Z,100417.53
2022-12-11T06:55:13.834Z,100412.22
2022-12-11T06:57:40.689Z,100422.88
2022-12-11T07:00:08.130Z,100415.91
2022-12-11T07:02:34.789Z,100425.34
2022-12-11T07:05:01.524Z,100419.16
2022-12-11T07:07:30.210Z,100418.56
2022-12-11T07:09:56.818Z,100427.63
2022-12-11T07:12:23.464Z,100420.47
2022-12-11T07:14:50.036Z,100413.59
2022-12-11T07:17:16.568Z,100413.16
2022-12-11T07:19:43.157Z,100417.53
2022-12-11T07:22:09.649Z,100419.88
2022-12-11T07:24:36.231Z,100421.06
2022-12-11T07:27:02.872Z,100423.91
2022-12-11T07:29:29.393Z,100426.75
2022-12-11T07:31:56.060Z,100425.47
2022-12-11T07:34:22.788Z,100428.44
2022-12-11T07:36:49.319Z,100428.81
2022-12-11T07:39:16.183Z,100423.97
2022-12-11T07:41:43.126Z,100417.84
2022-12-11T07:44:12.796Z,100425.22
2022-12-11T07:46:39.892Z,100426.69
2022-12-11T07:49:07.156Z,100430.44
2022-12-11T07:51:38.196Z,100429.06
2022-12-11T07:54:07.721Z,100429.69
2022-12-11T07:56:35.239Z,100433.22
2022-12-11T07:59:04.344Z,100435.56
2022-12-11T08:01:33.438Z,100438.19
2022-12-11T08:04:00.495Z,100446.53
2022-12-11T08:06:29.839Z,100436.66
2022-12-11T08:08:58.010Z,100443.09
2022-12-11T08:11:25.416Z,100449.44
2022-12-11T08:13:52.285Z,100441.91
2022-12-11T08:16:19.394Z,100443.00
2022-12-11T08:18:49.148Z,100438.72
2022-12-11T08:21:23.918Z,100440.09
2022-12-11T08:23:52.417Z,100441.25
2022-12-11T08:26:24.242Z,100438.22
2022-12-11T08:28:51.445Z,100441.00
2022-12-11T08:31:18.831Z,100446.00
2022-12-11T08:33:46.481Z,100447.25
2022-12-11T08:36:19.145Z,100445.81
2022-12-11T08:38:46.836Z,100450.19
2022-12-11T08:41:18.966Z,100446.22
2022-12-11T08:43:46.627Z,100448.44
2022-12-11T08:46:13.604Z,100444.34
2022-12-11T08:48:42.692Z,100437.53
2022-12-11T08:51:13.400Z,100444.72
2022-12-11T08:53:40.072Z,100448.72
2022-12-11T08:56:12.009Z,100445.28
2022-12-11T08:58:38.985Z,100441.28
2022-12-11T09:01:10.719Z,100446.53
2022-12-11T09:03:38.447Z,100453.19
2022-12-11T09:06:06.956Z,100458.09
2022-12-11T09:08:34.093Z,100455.22
2022-12-11T09:11:11.852Z,100456.25
2022-12-11T09:13:39.221Z,100457.22
2022-12-11T09:16:09.491Z,100444.19
2022-12-11T09:18:37.741Z,100457.94
2022-12-11T09:21:11.497Z,100447.69
2022-12-11T09:23:38.063Z,100451.50
2022-12-11T09:26:11.115Z,100439.06
2022-12-11T09:28:44.327Z,100444.56
2022-12-11T09:31:19.205Z,100441.25
2022-12-11T09:33:46.389Z,100443.69
2022-12-11T09:36:13.100Z,100436.06
2022-12-11T09:38:39.848Z,100432.25
2022-12-11T09:41:37.422Z,100429.63
2022-12-11T09:44:13.405Z,100427.47
2022-12-11T09:46:40.970Z,100417.53
2022-12-11T09:49:22.197Z,100411.31
2022-12-11T09:52:09.074Z,100405.53
2022-12-11T09:54:35.942Z,100400.72
2022-12-11T09:57:14.460Z,100411.53
2022-12-11T09:59:57.344Z,100417.19
2022-12-11T10:03:03.269Z,100415.66
2022-12-11T10:05:48.766Z,100410.41
2022-12-11T10:08:32.044Z,100413.91
2022-12-11T10:11:48.285Z,100413.91
2022-12-11T10:14:58.350Z,100408.78
2022-12-11T10:17:30.912Z,100410.53
2022-12-11T10:20:05.526Z,100406.75
2022-12-11T10:22:33.708Z,100404.16
2022-12-11T10:25:12.899Z,100403.28
2022-12-11T10:27:41.044Z,100399.13
2022-12-11T10:30:07.663Z,100401.41
2022-12-11T10:33:00.193Z,100402.03
2022-12-11T10:35:33.407Z,100406.72
2022-12-11T10:38:13.772Z,100395.91
2022-12-11T10:40:45.561Z,100408.56
2022-12-11T10:43:12.525Z,100394.56
2022-12-11T10:45:39.558Z,100394.97
2022-12-11T10:48:10.743Z,100402.25
2022-12-11T10:50:38.707Z,100401.69
2022-12-11T10:53:05.973Z,100398.31
2022-12-11T10:55:45.384Z,100397.50
2022-12-11T10:58:24.207Z,100398.81
2022-12-11T11:01:05.751Z,100399.19
2022-12-11T11:04:14.550Z,100397.78
2022-12-11T11:06:44.436Z,100404.34
2022-12-11T11:09:29.847Z,100403.13
2022-12-11T11:11:56.542Z,100400.72
2022-12-11T11:14:23.551Z,100401.69
2022-12-11T11:16:52.801Z,100395.97
2022-12-11T11:19:26.846Z,100394.66
2022-12-11T11:21:57.561Z,100398.22
2022-12-11T11:24:40.042Z,100388.25
2022-12-11T11:28:02.454Z,100375.25
2022-12-11T11:30:33.804Z,100376.06
2022-12-11T11:33:05.713Z,100378.00
2022-12-11T11:35:33.028Z,100380.38
2022-12-11T11:38:12.670Z,100383.59
2022-12-11T11:41:07.618Z,100373.84
2022-12-11T11:43:48.910Z,100367.41
2022-12-11T11:46:18.462Z,100365.63
2022-12-11T11:48:51.997Z,100368.53
2022-12-11T11:51:23.045Z,100371.66
2022-12-11T11:53:51.626Z,100364.91
2022-12-11T11:56:54.134Z,100364.56
2022-12-11T11:59:27.708Z,100360.03
2022-12-11T12:01:56.817Z,100363.97
2022-12-11T12:04:53.260Z,100365.97
2022-12-11T12:08:15.237Z,100363.81
2022-12-11T12:10:50.772Z,100354.56
2022-12-11T12:14:29.062Z,100357.72
2022-12-11T12:17:09.528Z,100351.31
2022-12-11T12:19:48.484Z,100360.63
2022-12-11T12:22:46.206Z,100356.13
2022-12-11T12:25:26.760Z,100354.25
2022-12-11T12:27:53.517Z,100357.22
2022-12-11T12:30:23.347Z,100364.03
2022-12-11T12:33:25.310Z,100357.88
2022-12-11T12:36:27.875Z,100357.41
2022-12-11T12:39:15.947Z,100362.19
2022-12-11T12:41:55.226Z,100347.50
2022-12-11T12:44:23.971Z,100358.16
2022-12-11T12:47:00.289Z,100356.19
2022-12-11T12:49:40.945Z,100346.06
2022-12-11T12:52:33.916Z,100349.38
2022-12-11T12:55:14.599Z,100349.13
2022-12-11T12:58:05.157Z,100353.81
2022-12-11T13:00:43.718Z,100354.38
2022-12-11T13:03:20.352Z,100343.94
2022-12-11T13:06:06.201Z,100342.97
2022-12-11T13:08:47.105Z,100341.56
2022-12-11T13:11:16.338Z,100340.59
2022-12-11T13:13:51.608Z,100343.81
2022-12-11T13:16:25.090Z,100330.94
2022-12-11T13:18:52.480Z,100331.19
2022-12-11T13:21:36.004Z,100334.09
2022-12-11T13:24:25.676Z,100329.03
2022-12-11T13:26:52.315Z,100322.28
2022-12-11T13:29:37.641Z,100330.16
2022-12-11T13:32:10.591Z,100336.44
2022-12-11T13:34:41.509Z,100336.34
2022-12-11T13:37:31.799Z,100339.41
2022-12-11T13:39:59.891Z,100323.28
2022-12-11T13:42:42.621Z,100331.38
2022-12-11T13:45:19.423Z,100326.44
2022-12-11T13:47:47.713Z,100336.63
2022-12-11T13:50:22.403Z,100341.44
2022-12-11T13:53:00.367Z,100338.19
2022-12-11T13:55:33.487Z,100345.88
2022-12-11T13:58:00.502Z,100356.66
2022-12-11T14:00:32.679Z,100354.66
2022-12-11T14:03:05.135Z,100356.66
2022-12-11T14:05:32.004Z,100359.59
2022-12-11T14:08:09.252Z,100354.25
2022-12-11T14:10:37.051Z,100354.81
2022-12-11T14:13:17.582Z,100360.19
2022-12-11T14:15:45.538Z,100369.34
2022-12-11T14:18:20.190Z,100365.06
2022-12-11T14:20:55.333Z,100360.66
2022-12-11T14:23:25.260Z,100357.41
2022-12-11T14:26:00.693Z,100352.34
2022-12-11T14:28:36.811Z,100353.31
2022-12-11T14:31:06.406Z,100355.97
2022-12-11T14:33:38.258Z,100355.44
2022-12-11T14:36:06.556Z,100352.34
2022-12-11T14:38:37.813Z,100356.69
2022-12-11T14:41:17.033Z,100354.50
2022-12-11T14:43:48.323Z,100356.19
2022-12-11T14:46:19.129Z,100359.50
2022-12-11T14:49:00.553Z,100360.16
2022-12-11T14:51:34.263Z,100352.47
2022-12-11T14:54:03.503Z,100361.44
2022-12-11T14:56:30.800Z,100357.34
2022-12-11T14:59:08.779Z,100361.50
2022-12-11T15:01:37.737Z,100359.81
2022-12-11T15:04:06.200Z,100362.38
2022-12-11T15:06:36.269Z,100371.34
2022-12-11T15:09:19.043Z,100367.88
2022-12-11T15:11:48.337Z,100365.56
2022-12-11T15:14:18.016Z,100367.81
2022-12-11T15:16:45.126Z,100369.88
2022-12-11T15:19:32.527Z,100368.19
2022-12-11T15:22:08.547Z,100362.19
2022-12-11T15:24:41.757Z,100366.13
2022-12-11T15:27:36.671Z,100376.22
2022-12-11T15:30:18.833Z,100372.66
2022-12-11T15:32:46.077Z,100374.25
2022-12-11T15:35:25.891Z,100367.06
2022-12-11T15:37:54.527Z,100371.31
2022-12-11T15:40:21.224Z,100364.63
2022-12-11T15:42:50.317Z,100367.59
2022-12-11T15:45:20.241Z,100373.91
2022-12-11T15:47:48.619Z,100372.16
2022-12-11T15:50:16.828Z,100377.03
2022-12-11T15:52:43.980Z,100375.88
2022-12-11T15:55:11.256Z,100382.78
2022-12-11T15:57:38.240Z,100382.47
2022-12-11T16:00:08.041Z,100384.56
2022-12-11T16:02:34.678Z,100386.38
2022-12-11T16:05:01.220Z,100391.81
2022-12-11T16:07:27.794Z,100381.56
2022-12-11T16:09:54.409Z,100384.69
2022-12-11T16:12:21.114Z,100379.34
2022-12-11T16:14:47.909Z,100381.31
2022-12-11T16:17:15.511Z,100386.69
2022-12-11T16:19:47.161Z,100386.44
2022-12-11T16:22:14.865Z,100378.69
2022-12-11T16:24:41.781Z,100385.66
2022-12-11T16:27:09.818Z,100377.78
2022-12-11T16:30:01.995Z,100384.38
2022-12-11T16:32:28.551Z,100385.56
2022-12-11T16:34:59.863Z,100387.28
2022-12-11T16:37:26.433Z,100380.09
2022-12-11T16:39:53.011Z,100379.88
2022-12-11T16:42:21.066Z,100377.47
2022-12-11T16:44:48.516Z,100370.09
2022-12-11T16:47:15.132Z,100375.22
2022-12-11T16:49:43.202Z,100353.91
2022-12-11T16:52:09.797Z,100376.38
2022-12-11T16:54:36.389Z,100385.25
2022-12-11T16:57:03.041Z,100382.03
2022-12-11T16:59:35.146Z,100378.78
2022-12-11T17:02:03.884Z,100367.47
2022-12-11T17:04:30.467Z,100369.22
2022-12-11T17:06:57.079Z,100372.03
2022-12-11T17:09:23.811Z,100366.03
2022-12-11T17:11:50.505Z,100377.78
2022-12-11T17:14:17.060Z,100376.22
2022-12-11T17:16:44.390Z,100381.75
2022-12-11T17:19:11.073Z,100384.44
2022-12-11T17:21:37.703Z,100374.09
2022-12-11T17:24:04.559Z,100386.22
2022-12-11T17:26:31.525Z,100378.69
2022-12-11T17:28:58.249Z,100377.00
2022-12-11T17:31:25.111Z,100378.47
2022-12-11T17:33:53.864Z,100373.88
2022-12-11T17:36:21.997Z,100375.41
2022-12-11T17:38:49.727Z,100373.88
2022-12-11T17:41:20.544Z,100369.88
2022-12-11T17:43:49.630Z,100373.81
2022-12-11T17:46:17.059Z,100374.44
2022-12-11T17:48:43.962Z,100375.16
2022-12-11T17:51:13.994Z,100381.09
2022-12-11T17:53:40.575Z,100374.31
2022-12-11T17:56:17.256Z,100370.16
2022-12-11T17:59:08.284Z,100378.78
2022-12-11T18:01:37.145Z,100374.75
2022-12-11T18:04:04.897Z,100371.34
2022-12-11T18:06:32.738Z,100377.84
2022-12-11T18:08:59.453Z,100374.53
2022-12-11T18:11:32.099Z,100374.31
2022-12-11T18:14:01.659Z,100375.75
2022-12-11T18:16:34.321Z,100382.63
2022-12-11T18:19:01.331Z,100373.59
2022-12-11T18:21:32.343Z,100378.56
2022-12-11T18:24:00.088Z,100379.59
2022-12-11T18:26:28.036Z,100370.16
2022-12-11T18:28:55.025Z,100389.84
2022-12-11T18:31:22.978Z,100381.59
2022-12-11T18:33:50.803Z,100382.47
2022-12-11T18:36:18.941Z,100370.28
2022-12-11T18:38:47.004Z,100385.75
2022-12-11T18:41:16.128Z,100376.63
2022-12-11T18:43:43.108Z,100382.44
2022-12-11T18:46:14.980Z,100379.19
2022-12-11T18:48:43.227Z,100378.44
2022-12-11T18:51:17.060Z,100383.09
2022-12-11T18:53:43.834Z,100375.59
2022-12-11T18:56:13.909Z,100390.88
2022-12-11T18:58:40.983Z,100373.88
2022-12-11T19:01:16.084Z,100376.63
2022-12-11T19:03:44.200Z,100368.94
2022-12-11T19:06:13.994Z,100373.50
2022-12-11T19:08:41.188Z,100367.59
2022-12-11T19:11:07.980Z,100378.09
2022-12-11T19:13:35.138Z,100374.47
2022-12-11T19:16:02.282Z,100380.00
2022-12-11T19:18:28.988Z,100380.81
2022-12-11T19:21:06.793Z,100376.22
2022-12-11T19:23:35.552Z,100376.88
2022-12-11T19:26:02.479Z,100380.81
2022-12-11T19:28:31.138Z,100392.66
2022-12-11T19:30:57.886Z,100380.19
2022-12-11T19:33:24.624Z,100382.69
2022-12-11T19:36:00.929Z,100381.19
2022-12-11T19:38:27.500Z,100383.50
2022-12-11T19:40:59.772Z,100385.78
2022-12-11T19:43:30.048Z,100375.00
2022-12-11T19:46:02.617Z,100386.94
2022-12-11T19:48:30.532Z,100381.50
2022-12-11T19:50:57.332Z,100379.25
2022-12-11T19:53:23.948Z,100378.84
2022-12-11T19:55:52.193Z,100379.00
2022-12-11T19:58:20.110Z,100373.72
2022-12-11T20:00:46.717Z,100374.00
2022-12-11T20:03:13.509Z,100370.00
2022-12-11T20:05:40.364Z,100367.88
2022-12-11T20:08:35.668Z,100376.38
2022-12-11T20:10:54.290Z,100373.00
2022-12-11T20:13:21.800Z,100372.72
2022-12-11T20:15:48.988Z,100370.00
2022-12-11T20:18:18.748Z,100372.19
2022-12-11T20:20:45.591Z,100376.28
2022-12-11T20:23:12.160Z,100381.16
2022-12-11T20:25:41.777Z,100381.25
2022-12-11T20:28:08.258Z,100384.16
2022-12-11T20:30:35.536Z,100385.00
2022-12-11T20:33:02.162Z,100382.63
2022-12-11T20:35:28.924Z,100386.41
2022-12-11T20:37:55.732Z,100386.69
2022-12-11T20:40:22.320Z,100394.66
2022-12-11T20:42:49.625Z,100390.88
2022-12-11T20:45:16.462Z,100387.44
2022-12-11T20:47:43.162Z,100386.97
2022-12-11T20:50:11.141Z,100386.63
2022-12-11T20:52:38.599Z,100388.25
2022-12-11T20:55:08.086Z,100393.22
2022-12-11T20:57:40.544Z,100385.19
2022-12-11T21:00:11.820Z,100391.19
2022-12-11T21:02:38.434Z,100374.88
2022-12-11T21:05:05.309Z,100392.66
2022-12-11T21:07:31.982Z,100398.34
2022-12-11T21:09:58.680Z,100389.44
2022-12-11T21:12:31.230Z,100388.69
2022-12-11T21:14:58.473Z,100392.78
2022-12-11T21:17:25.293Z,100396.31
2022-12-11T21:19:52.455Z,100392.38
2022-12-11T21:22:19.146Z,100390.38
2022-12-11T21:24:45.817Z,100394.47
2022-12-11T21:27:12.628Z,100391.25
2022-12-11T21:29:41.594Z,100388.88
2022-12-11T21:32:08.407Z,100387.59
2022-12-11T21:34:35.201Z,100391.91
2022-12-11T21:37:03.067Z,100389.53
2022-12-11T21:39:30.870Z,100376.72
2022-12-11T21:42:01.214Z,100386.19
2022-12-11T21:47:17.245Z,100381.34
2022-12-11T21:49:43.932Z,100388.22
2022-12-11T21:52:11.037Z,100386.19
2022-12-11T21:54:37.782Z,100384.06
2022-12-11T21:57:04.946Z,100389.63
2022-12-11T21:59:31.646Z,100383.84
2022-12-11T22:01:58.413Z,100396.44
2022-12-11T22:04:24.938Z,100386.22
2022-12-11T22:06:51.807Z,100393.44
2022-12-11T22:09:18.469Z,100387.13
2022-12-11T22:11:46.581Z,100389.22
2022-12-11T22:14:14.990Z,100392.47
2022-12-11T22:16:42.703Z,100398.34
2022-12-11T22:19:10.839Z,100394.66
2022-12-11T22:21:37.955Z,100401.56
2022-12-11T22:24:04.903Z,100400.03
2022-12-11T22:26:33.845Z,100399.28
2022-12-11T22:29:01.990Z,100399.75
2022-12-11T22:31:28.957Z,100391.75
2022-12-11T22:33:56.208Z,100394.81
2022-12-11T22:36:25.275Z,100398.66
2022-12-11T22:38:52.437Z,100388.25
2022-12-11T22:41:27.132Z,100397.91
2022-12-11T22:43:54.948Z,100400.41
2022-12-11T22:46:24.175Z,100403.53
2022-12-11T22:48:51.101Z,100392.25
2022-12-11T22:51:18.145Z,100394.63
2022-12-11T22:53:44.770Z,100386.31
2022-12-11T22:56:13.703Z,100394.16
2022-12-11T22:58:40.776Z,100393.88
2022-12-11T23:01:13.457Z,100398.16
2022-12-11T23:03:40.503Z,100392.38
2022-12-11T23:06:09.246Z,100392.00
2022-12-11T23:08:36.250Z,100390.06
2022-12-11T23:11:09.764Z,100381.72
2022-12-11T23:13:36.312Z,100390.94
2022-12-11T23:16:02.984Z,100394.88
2022-12-11T23:18:29.612Z,100395.53
2022-12-11T23:20:56.154Z,100397.59
2022-12-11T23:23:22.699Z,100395.22
2022-12-11T23:25:49.222Z,100401.44
2022-12-11T23:28:15.822Z,100399.47
2022-12-11T23:30:42.524Z,100407.75
2022-12-11T23:33:09.771Z,100394.00
2022-12-11T23:35:36.358Z,100402.94
2022-12-11T23:38:02.988Z,100396.63
2022-12-11T23:40:30.396Z,100403.47
2022-12-11T23:42:57.564Z,100400.41
2022-12-11T23:45:24.381Z,100403.94
2022-12-11T23:47:51.181Z,100404.25
2022-12-11T23:50:18.105Z,100401.75
2022-12-11T23:52:44.697Z,100399.78
2022-12-11T23:55:11.871Z,100406.81
2022-12-11T23:57:38.649Z,100411.81
